sensor_id;sensor_type;location;lat;lon;timestamp;pressure;altitude;pressure_sealevel;temperature;humidity
21359;BME280;13506;50.852;20.632;2023-05-12T00:01:44;98617.63;;;8.42;57.14
21359;BME280;13506;50.852;20.632;2023-05-12T00:04:13;98627.06;;;8.28;56.73
21359;BME280;13506;50.852;20.632;2023-05-12T00:06:40;98630.56;;;8.43;56.53
21359;BME280;13506;50.852;20.632;2023-05-12T00:09:09;98626.91;;;8.31;57.36
21359;BME280;13506;50.852;20.632;2023-05-12T00:11:38;98625.06;;;8.48;56.52
21359;BME280;13506;50.852;20.632;2023-05-12T00:14:06;98622.56;;;8.46;56.92
21359;BME280;13506;50.852;20.632;2023-05-12T00:16:34;98620.56;;;8.36;56.79
21359;BME280;13506;50.852;20.632;2023-05-12T00:19:02;98619.59;;;8.22;57.41
21359;BME280;13506;50.852;20.632;2023-05-12T00:21:30;98630.25;;;8.34;57.31
21359;BME280;13506;50.852;20.632;2023-05-12T00:23:58;98626.81;;;8.03;57.98
21359;BME280;13506;50.852;20.632;2023-05-12T00:26:26;98619.03;;;8.17;57.66
21359;BME280;13506;50.852;20.632;2023-05-12T00:28:56;98621.09;;;8.12;57.95
21359;BME280;13506;50.852;20.632;2023-05-12T00:31:24;98621.09;;;8.12;57.88
21359;BME280;13506;50.852;20.632;2023-05-12T00:33:52;98625.50;;;7.96;58.54
21359;BME280;13506;50.852;20.632;2023-05-12T00:36:20;98628.56;;;8.02;58.61
21359;BME280;13506;50.852;20.632;2023-05-12T00:38:49;98623.91;;;7.93;58.62
21359;BME280;13506;50.852;20.632;2023-05-12T00:41:17;98626.38;;;7.80;59.12
21359;BME280;13506;50.852;20.632;2023-05-12T00:43:45;98623.03;;;7.62;59.32
21359;BME280;13506;50.852;20.632;2023-05-12T00:46:15;98627.22;;;7.49;60.00
21359;BME280;13506;50.852;20.632;2023-05-12T00:48:44;98631.59;;;7.48;61.34
21359;BME280;13506;50.852;20.632;2023-05-12T00:51:13;98640.31;;;7.47;60.51
21359;BME280;13506;50.852;20.632;2023-05-12T00:53:42;98633.28;;;7.49;60.81
21359;BME280;13506;50.852;20.632;2023-05-12T00:56:11;98637.81;;;7.46;60.93
21359;BME280;13506;50.852;20.632;2023-05-12T00:58:42;98634.13;;;7.34;60.90
21359;BME280;13506;50.852;20.632;2023-05-12T01:01:11;98630.94;;;7.45;60.51
21359;BME280;13506;50.852;20.632;2023-05-12T01:03:41;98632.50;;;7.47;60.84
21359;BME280;13506;50.852;20.632;2023-05-12T01:06:14;98642.50;;;7.39;61.04
21359;BME280;13506;50.852;20.632;2023-05-12T01:08:45;98640.09;;;7.36;61.61
21359;BME280;13506;50.852;20.632;2023-05-12T01:11:15;98649.56;;;7.37;61.30
21359;BME280;13506;50.852;20.632;2023-05-12T01:13:43;98648.91;;;7.49;60.55
21359;BME280;13506;50.852;20.632;2023-05-12T01:16:13;98639.41;;;7.33;60.91
21359;BME280;13506;50.852;20.632;2023-05-12T01:18:46;98631.75;;;7.45;60.58
21359;BME280;13506;50.852;20.632;2023-05-12T01:21:18;98636.44;;;7.55;60.52
21359;BME280;13506;50.852;20.632;2023-05-12T01:23:52;98634.69;;;7.39;61.57
21359;BME280;13506;50.852;20.632;2023-05-12T01:26:23;98628.06;;;7.34;61.45
21359;BME280;13506;50.852;20.632;2023-05-12T01:28:52;98629.50;;;7.39;60.76
21359;BME280;13506;50.852;20.632;2023-05-12T01:31:21;98637.72;;;7.47;60.89
21359;BME280;13506;50.852;20.632;2023-05-12T01:33:49;98633.59;;;7.43;61.08
21359;BME280;13506;50.852;20.632;2023-05-12T01:36:17;98639.31;;;7.34;61.26
21359;BME280;13506;50.852;20.632;2023-05-12T01:38:46;98634.69;;;7.39;61.51
21359;BME280;13506;50.852;20.632;2023-05-12T01:41:14;98632.16;;;7.38;61.56
21359;BME280;13506;50.852;20.632;2023-05-12T01:43:44;98635.31;;;7.44;60.96
21359;BME280;13506;50.852;20.632;2023-05-12T01:46:13;98637.47;;;7.36;61.28
21359;BME280;13506;50.852;20.632;2023-05-12T01:48:42;98642.66;;;7.52;61.28
21359;BME280;13506;50.852;20.632;2023-05-12T01:51:11;98640.66;;;7.41;61.28
21359;BME280;13506;50.852;20.632;2023-05-12T01:53:39;98632.59;;;7.14;62.41
21359;BME280;13506;50.852;20.632;2023-05-12T01:56:07;98648.50;;;7.08;62.10
21359;BME280;13506;50.852;20.632;2023-05-12T01:58:36;98642.59;;;7.22;62.31
21359;BME280;13506;50.852;20.632;2023-05-12T02:01:06;98645.69;;;7.13;62.74
21359;BME280;13506;50.852;20.632;2023-05-12T02:03:34;98634.34;;;7.14;62.24
21359;BME280;13506;50.852;20.632;2023-05-12T02:06:08;98646.19;;;7.19;63.00
21359;BME280;13506;50.852;20.632;2023-05-12T02:08:36;98649.06;;;7.15;62.81
21359;BME280;13506;50.852;20.632;2023-05-12T02:11:06;98649.47;;;7.23;62.57
21359;BME280;13506;50.852;20.632;2023-05-12T02:13:36;98646.72;;;7.26;62.93
21359;BME280;13506;50.852;20.632;2023-05-12T02:16:06;98643.41;;;7.22;63.08
21359;BME280;13506;50.852;20.632;2023-05-12T02:18:34;98643.34;;;7.24;62.67
21359;BME280;13506;50.852;20.632;2023-05-12T02:21:05;98645.00;;;7.25;62.46
21359;BME280;13506;50.852;20.632;2023-05-12T02:23:33;98639.03;;;7.23;63.19
21359;BME280;13506;50.852;20.632;2023-05-12T02:26:01;98649.22;;;7.27;62.43
21359;BME280;13506;50.852;20.632;2023-05-12T02:28:29;98646.19;;;7.35;62.38
21359;BME280;13506;50.852;20.632;2023-05-12T02:30:57;98651.47;;;7.18;62.87
21359;BME280;13506;50.852;20.632;2023-05-12T02:33:27;98652.56;;;7.14;63.60
21359;BME280;13506;50.852;20.632;2023-05-12T02:35:56;98647.19;;;7.17;63.01
21359;BME280;13506;50.852;20.632;2023-05-12T02:38:24;98652.97;;;7.06;63.60
21359;BME280;13506;50.852;20.632;2023-05-12T02:40:53;98652.63;;;6.96;64.42
21359;BME280;13506;50.852;20.632;2023-05-12T02:43:21;98651.25;;;6.89;64.17
21359;BME280;13506;50.852;20.632;2023-05-12T02:45:49;98657.78;;;6.80;65.17
21359;BME280;13506;50.852;20.632;2023-05-12T02:48:18;98663.63;;;7.01;64.22
21359;BME280;13506;50.852;20.632;2023-05-12T02:50:47;98660.69;;;7.07;63.84
21359;BME280;13506;50.852;20.632;2023-05-12T02:53:16;98662.59;;;6.88;65.05
21359;BME280;13506;50.852;20.632;2023-05-12T02:55:44;98661.50;;;6.75;65.20
21359;BME280;13506;50.852;20.632;2023-05-12T02:58:12;98661.91;;;6.84;64.50
21359;BME280;13506;50.852;20.632;2023-05-12T03:00:40;98655.03;;;6.83;64.84
21359;BME280;13506;50.852;20.632;2023-05-12T03:03:08;98656.81;;;6.99;64.22
21359;BME280;13506;50.852;20.632;2023-05-12T03:05:36;98660.44;;;6.96;64.55
21359;BME280;13506;50.852;20.632;2023-05-12T03:08:06;98669.03;;;6.81;65.14
21359;BME280;13506;50.852;20.632;2023-05-12T03:10:34;98656.31;;;6.75;65.56
21359;BME280;13506;50.852;20.632;2023-05-12T03:13:03;98647.06;;;6.69;66.13
21359;BME280;13506;50.852;20.632;2023-05-12T03:15:31;98655.16;;;6.80;65.54
21359;BME280;13506;50.852;20.632;2023-05-12T03:18:00;98657.16;;;6.75;65.75
21359;BME280;13506;50.852;20.632;2023-05-12T03:20:29;98649.84;;;6.66;66.14
21359;BME280;13506;50.852;20.632;2023-05-12T03:22:59;98653.09;;;6.69;65.87
21359;BME280;13506;50.852;20.632;2023-05-12T03:25:29;98653.69;;;6.92;65.81
21359;BME280;13506;50.852;20.632;2023-05-12T03:27:58;98648.19;;;6.98;65.49
21359;BME280;13506;50.852;20.632;2023-05-12T03:30:26;98651.88;;;6.94;65.89
21359;BME280;13506;50.852;20.632;2023-05-12T03:32:54;98658.81;;;6.76;66.29
21359;BME280;13506;50.852;20.632;2023-05-12T03:35:23;98653.00;;;6.88;65.83
21359;BME280;13506;50.852;20.632;2023-05-12T03:37:51;98657.38;;;6.88;66.19
21359;BME280;13506;50.852;20.632;2023-05-12T03:40:19;98662.19;;;6.96;65.90
21359;BME280;13506;50.852;20.632;2023-05-12T03:42:49;98653.06;;;7.04;65.47
21359;BME280;13506;50.852;20.632;2023-05-12T03:45:18;98645.84;;;7.09;65.64
21359;BME280;13506;50.852;20.632;2023-05-12T03:47:47;98649.19;;;6.96;65.47
21359;BME280;13506;50.852;20.632;2023-05-12T03:50:15;98656.25;;;7.09;65.26
21359;BME280;13506;50.852;20.632;2023-05-12T03:52:44;98647.69;;;7.07;65.39
21359;BME280;13506;50.852;20.632;2023-05-12T03:55:12;98649.38;;;7.24;65.61
21359;BME280;13506;50.852;20.632;2023-05-12T03:57:42;98653.59;;;7.43;65.03
21359;BME280;13506;50.852;20.632;2023-05-12T04:00:13;98646.38;;;7.32;65.04
21359;BME280;13506;50.852;20.632;2023-05-12T04:02:44;98655.97;;;7.32;65.11
21359;BME280;13506;50.852;20.632;2023-05-12T04:05:14;98649.88;;;7.31;64.98
21359;BME280;13506;50.852;20.632;2023-05-12T04:07:42;98644.53;;;7.50;65.05
21359;BME280;13506;50.852;20.632;2023-05-12T04:10:10;98655.69;;;7.36;65.07
21359;BME280;13506;50.852;20.632;2023-05-12T04:12:38;98657.44;;;7.36;65.53
21359;BME280;13506;50.852;20.632;2023-05-12T04:15:07;98657.97;;;7.58;65.38
21359;BME280;13506;50.852;20.632;2023-05-12T04:17:37;98663.00;;;7.61;65.31
21359;BME280;13506;50.852;20.632;2023-05-12T04:20:06;98659.81;;;7.72;64.97
21359;BME280;13506;50.852;20.632;2023-05-12T04:22:35;98664.50;;;7.81;64.81
21359;BME280;13506;50.852;20.632;2023-05-12T04:25:03;98663.66;;;7.81;64.69
21359;BME280;13506;50.852;20.632;2023-05-12T04:27:31;98659.03;;;7.86;64.36
21359;BME280;13506;50.852;20.632;2023-05-12T04:29:59;98662.06;;;7.78;65.20
21359;BME280;13506;50.852;20.632;2023-05-12T04:32:28;98666.63;;;8.05;64.71
21359;BME280;13506;50.852;20.632;2023-05-12T04:34:58;98658.59;;;7.94;65.08
21359;BME280;13506;50.852;20.632;2023-05-12T04:37:26;98664.91;;;8.20;64.41
21359;BME280;13506;50.852;20.632;2023-05-12T04:39:54;98666.97;;;8.15;64.10
21359;BME280;13506;50.852;20.632;2023-05-12T04:42:23;98660.47;;;8.22;64.37
21359;BME280;13506;50.852;20.632;2023-05-12T04:44:51;98659.16;;;8.45;63.96
21359;BME280;13506;50.852;20.632;2023-05-12T04:47:19;98667.28;;;8.55;63.44
21359;BME280;13506;50.852;20.632;2023-05-12T04:49:47;98669.28;;;8.80;62.09
21359;BME280;13506;50.852;20.632;2023-05-12T04:52:17;98660.31;;;8.84;62.42
21359;BME280;13506;50.852;20.632;2023-05-12T04:54:46;98667.41;;;8.82;62.01
21359;BME280;13506;50.852;20.632;2023-05-12T04:57:15;98670.28;;;8.63;62.47
21359;BME280;13506;50.852;20.632;2023-05-12T04:59:43;98674.84;;;8.59;62.04
21359;BME280;13506;50.852;20.632;2023-05-12T05:02:12;98674.66;;;8.77;61.85
21359;BME280;13506;50.852;20.632;2023-05-12T05:04:39;98678.44;;;9.01;62.58
21359;BME280;13506;50.852;20.632;2023-05-12T05:07:08;98678.31;;;9.03;60.96
21359;BME280;13506;50.852;20.632;2023-05-12T05:09:37;98679.91;;;9.05;60.40
21359;BME280;13506;50.852;20.632;2023-05-12T05:12:06;98685.97;;;9.06;60.11
21359;BME280;13506;50.852;20.632;2023-05-12T05:14:34;98681.88;;;9.16;60.27
21359;BME280;13506;50.852;20.632;2023-05-12T05:17:02;98686.50;;;9.25;59.72
21359;BME280;13506;50.852;20.632;2023-05-12T05:19:34;98675.50;;;9.34;59.68
21359;BME280;13506;50.852;20.632;2023-05-12T05:22:03;98681.75;;;9.46;59.15
21359;BME280;13506;50.852;20.632;2023-05-12T05:24:31;98685.63;;;9.53;59.60
21359;BME280;13506;50.852;20.632;2023-05-12T05:27:00;98687.88;;;9.60;59.07
21359;BME280;13506;50.852;20.632;2023-05-12T05:29:29;98688.03;;;9.71;58.71
21359;BME280;13506;50.852;20.632;2023-05-12T05:31:57;98695.28;;;9.94;59.44
21359;BME280;13506;50.852;20.632;2023-05-12T05:34:25;98696.16;;;10.08;58.31
21359;BME280;13506;50.852;20.632;2023-05-12T05:36:53;98697.84;;;10.09;58.74
21359;BME280;13506;50.852;20.632;2023-05-12T05:39:21;98692.53;;;10.23;57.93
21359;BME280;13506;50.852;20.632;2023-05-12T05:41:49;98700.66;;;10.46;57.32
21359;BME280;13506;50.852;20.632;2023-05-12T05:44:18;98711.34;;;10.43;56.77
21359;BME280;13506;50.852;20.632;2023-05-12T05:46:47;98705.88;;;10.46;56.69
21359;BME280;13506;50.852;20.632;2023-05-12T05:49:15;98704.00;;;10.48;56.30
21359;BME280;13506;50.852;20.632;2023-05-12T05:51:43;98697.56;;;10.66;56.48
21359;BME280;13506;50.852;20.632;2023-05-12T05:54:11;98699.88;;;10.71;55.23
21359;BME280;13506;50.852;20.632;2023-05-12T05:56:39;98702.81;;;10.92;55.55
21359;BME280;13506;50.852;20.632;2023-05-12T05:59:07;98715.81;;;10.93;55.08
21359;BME280;13506;50.852;20.632;2023-05-12T06:01:38;98711.19;;;11.10;54.89
21359;BME280;13506;50.852;20.632;2023-05-12T06:04:06;98708.69;;;11.21;54.44
21359;BME280;13506;50.852;20.632;2023-05-12T06:06:35;98719.06;;;11.10;53.95
21359;BME280;13506;50.852;20.632;2023-05-12T06:09:03;98718.94;;;11.37;54.37
21359;BME280;13506;50.852;20.632;2023-05-12T06:11:33;98725.13;;;11.36;54.04
21359;BME280;13506;50.852;20.632;2023-05-12T06:14:01;98713.81;;;11.23;53.67
21359;BME280;13506;50.852;20.632;2023-05-12T06:16:29;98713.03;;;11.59;53.89
21359;BME280;13506;50.852;20.632;2023-05-12T06:18:58;98722.28;;;11.39;52.96
21359;BME280;13506;50.852;20.632;2023-05-12T06:21:26;98718.50;;;11.43;53.12
21359;BME280;13506;50.852;20.632;2023-05-12T06:23:54;98718.88;;;11.63;52.72
21359;BME280;13506;50.852;20.632;2023-05-12T06:26:22;98711.22;;;11.96;51.78
21359;BME280;13506;50.852;20.632;2023-05-12T06:28:50;98712.91;;;11.97;52.12
21359;BME280;13506;50.852;20.632;2023-05-12T06:31:18;98718.22;;;12.09;52.86
21359;BME280;13506;50.852;20.632;2023-05-12T06:33:47;98718.13;;;12.34;51.89
21359;BME280;13506;50.852;20.632;2023-05-12T06:36:16;98720.16;;;12.18;50.45
21359;BME280;13506;50.852;20.632;2023-05-12T06:38:44;98723.41;;;12.46;50.35
21359;BME280;13506;50.852;20.632;2023-05-12T06:41:13;98721.00;;;12.43;49.08
21359;BME280;13506;50.852;20.632;2023-05-12T06:43:42;98724.03;;;12.49;49.86
21359;BME280;13506;50.852;20.632;2023-05-12T06:46:10;98730.16;;;12.61;48.86
21359;BME280;13506;50.852;20.632;2023-05-12T06:48:38;98725.94;;;12.58;48.66
21359;BME280;13506;50.852;20.632;2023-05-12T06:51:06;98712.44;;;12.52;48.56
21359;BME280;13506;50.852;20.632;2023-05-12T06:53:36;98736.13;;;12.39;48.36
21359;BME280;13506;50.852;20.632;2023-05-12T06:56:04;98726.94;;;12.33;48.25
21359;BME280;13506;50.852;20.632;2023-05-12T06:58:32;98732.50;;;12.29;48.49
21359;BME280;13506;50.852;20.632;2023-05-12T07:01:01;98734.19;;;12.30;47.68
21359;BME280;13506;50.852;20.632;2023-05-12T07:03:31;98749.94;;;12.30;48.28
21359;BME280;13506;50.852;20.632;2023-05-12T07:05:59;98737.22;;;12.36;48.24
21359;BME280;13506;50.852;20.632;2023-05-12T07:08:27;98730.53;;;12.44;48.02
21359;BME280;13506;50.852;20.632;2023-05-12T07:10:59;98737.13;;;12.73;47.88
21359;BME280;13506;50.852;20.632;2023-05-12T07:13:27;98733.38;;;12.65;47.25
21359;BME280;13506;50.852;20.632;2023-05-12T07:15:55;98744.28;;;12.71;46.79
21359;BME280;13506;50.852;20.632;2023-05-12T07:18:23;98732.16;;;13.04;47.10
21359;BME280;13506;50.852;20.632;2023-05-12T07:20:51;98730.50;;;13.14;46.92
21359;BME280;13506;50.852;20.632;2023-05-12T07:23:19;98737.66;;;13.24;46.60
21359;BME280;13506;50.852;20.632;2023-05-12T07:25:48;98739.16;;;13.39;46.23
21359;BME280;13506;50.852;20.632;2023-05-12T07:28:17;98733.34;;;13.11;46.42
21359;BME280;13506;50.852;20.632;2023-05-12T07:30:45;98741.63;;;13.29;46.88
21359;BME280;13506;50.852;20.632;2023-05-12T07:33:13;98750.97;;;13.56;46.96
21359;BME280;13506;50.852;20.632;2023-05-12T07:35:41;98745.34;;;13.49;45.23
21359;BME280;13506;50.852;20.632;2023-05-12T07:38:10;98737.41;;;13.15;45.87
21359;BME280;13506;50.852;20.632;2023-05-12T07:40:38;98750.13;;;13.55;46.60
21359;BME280;13506;50.852;20.632;2023-05-12T07:43:06;98766.81;;;13.21;45.76
21359;BME280;13506;50.852;20.632;2023-05-12T07:45:36;98747.72;;;13.41;45.82
21359;BME280;13506;50.852;20.632;2023-05-12T07:48:04;98777.31;;;13.21;45.58
21359;BME280;13506;50.852;20.632;2023-05-12T07:50:32;98745.72;;;13.56;46.26
21359;BME280;13506;50.852;20.632;2023-05-12T07:53:00;98744.28;;;13.63;45.30
21359;BME280;13506;50.852;20.632;2023-05-12T07:55:28;98747.81;;;13.28;45.30
21359;BME280;13506;50.852;20.632;2023-05-12T07:57:56;98756.75;;;13.26;45.27
21359;BME280;13506;50.852;20.632;2023-05-12T08:00:24;98754.19;;;13.48;45.66
21359;BME280;13506;50.852;20.632;2023-05-12T08:02:54;98738.03;;;13.75;45.28
21359;BME280;13506;50.852;20.632;2023-05-12T08:05:22;98766.03;;;13.54;45.78
21359;BME280;13506;50.852;20.632;2023-05-12T08:07:50;98757.53;;;13.50;45.70
21359;BME280;13506;50.852;20.632;2023-05-12T08:10:18;98760.13;;;13.73;45.40
21359;BME280;13506;50.852;20.632;2023-05-12T08:12:45;98763.84;;;13.70;44.90
21359;BME280;13506;50.852;20.632;2023-05-12T08:15:14;98767.09;;;13.63;45.15
21359;BME280;13506;50.852;20.632;2023-05-12T08:17:42;98755.59;;;13.75;45.27
21359;BME280;13506;50.852;20.632;2023-05-12T08:20:12;98754.81;;;14.07;45.73
21359;BME280;13506;50.852;20.632;2023-05-12T08:22:41;98762.22;;;14.24;44.15
21359;BME280;13506;50.852;20.632;2023-05-12T08:25:10;98766.88;;;14.20;44.25
21359;BME280;13506;50.852;20.632;2023-05-12T08:27:37;98751.41;;;14.38;44.04
21359;BME280;13506;50.852;20.632;2023-05-12T08:30:06;98759.41;;;14.48;44.18
21359;BME280;13506;50.852;20.632;2023-05-12T08:32:35;98761.72;;;14.30;42.94
21359;BME280;13506;50.852;20.632;2023-05-12T08:35:03;98755.31;;;14.76;43.05
21359;BME280;13506;50.852;20.632;2023-05-12T08:37:33;98754.63;;;14.42;42.23
21359;BME280;13506;50.852;20.632;2023-05-12T08:40:01;98767.94;;;14.61;43.29
21359;BME280;13506;50.852;20.632;2023-05-12T08:42:36;98757.31;;;14.63;42.59
21359;BME280;13506;50.852;20.632;2023-05-12T08:45:07;98767.53;;;14.77;42.39
21359;BME280;13506;50.852;20.632;2023-05-12T08:47:38;98764.50;;;14.61;41.64
21359;BME280;13506;50.852;20.632;2023-05-12T08:50:09;98774.78;;;14.64;42.15
21359;BME280;13506;50.852;20.632;2023-05-12T08:52:38;98782.13;;;14.81;41.44
21359;BME280;13506;50.852;20.632;2023-05-12T08:55:08;98754.88;;;14.71;41.28
21359;BME280;13506;50.852;20.632;2023-05-12T08:57:37;98793.94;;;15.08;41.88
21359;BME280;13506;50.852;20.632;2023-05-12T09:00:07;98773.00;;;15.07;41.76
21359;BME280;13506;50.852;20.632;2023-05-12T09:02:37;98765.50;;;15.02;42.20
21359;BME280;13506;50.852;20.632;2023-05-12T09:05:06;98769.91;;;15.22;41.84
21359;BME280;13506;50.852;20.632;2023-05-12T09:07:35;98767.59;;;15.08;41.61
21359;BME280;13506;50.852;20.632;2023-05-12T09:10:08;98760.47;;;14.99;41.75
21359;BME280;13506;50.852;20.632;2023-05-12T09:12:40;98757.75;;;15.31;41.84
21359;BME280;13506;50.852;20.632;2023-05-12T09:15:13;98760.97;;;15.35;40.98
21359;BME280;13506;50.852;20.632;2023-05-12T09:17:43;98749.31;;;15.16;41.23
21359;BME280;13506;50.852;20.632;2023-05-12T09:20:12;98748.81;;;15.22;40.86
21359;BME280;13506;50.852;20.632;2023-05-12T09:22:40;98760.75;;;15.27;41.24
21359;BME280;13506;50.852;20.632;2023-05-12T09:25:17;98757.00;;;14.98;40.47
21359;BME280;13506;50.852;20.632;2023-05-12T09:27:46;98764.97;;;15.29;41.41
21359;BME280;13506;50.852;20.632;2023-05-12T09:30:15;98753.84;;;15.26;39.80
21359;BME280;13506;50.852;20.632;2023-05-12T09:32:43;98766.81;;;15.17;40.46
21359;BME280;13506;50.852;20.632;2023-05-12T09:35:11;98753.56;;;15.50;40.11
21359;BME280;13506;50.852;20.632;2023-05-12T09:37:39;98752.78;;;15.69;39.04
21359;BME280;13506;50.852;20.632;2023-05-12T09:40:08;98755.97;;;15.62;38.68
21359;BME280;13506;50.852;20.632;2023-05-12T09:42:38;98751.97;;;15.78;38.71
21359;BME280;13506;50.852;20.632;2023-05-12T09:45:09;98763.44;;;15.57;37.80
21359;BME280;13506;50.852;20.632;2023-05-12T09:47:38;98760.63;;;15.49;37.77
21359;BME280;13506;50.852;20.632;2023-05-12T09:50:08;98778.19;;;15.70;38.80
21359;BME280;13506;50.852;20.632;2023-05-12T09:52:36;98751.75;;;15.50;37.58
21359;BME280;13506;50.852;20.632;2023-05-12T09:55:07;98758.88;;;15.59;37.59
21359;BME280;13506;50.852;20.632;2023-05-12T09:57:38;98748.25;;;15.80;37.13
21359;BME280;13506;50.852;20.632;2023-05-12T10:00:08;98753.59;;;15.59;36.48
21359;BME280;13506;50.852;20.632;2023-05-12T10:02:40;98753.81;;;15.87;36.81
21359;BME280;13506;50.852;20.632;2023-05-12T10:05:14;98749.78;;;15.83;36.39
21359;BME280;13506;50.852;20.632;2023-05-12T10:07:44;98749.41;;;15.97;35.60
21359;BME280;13506;50.852;20.632;2023-05-12T10:10:18;98728.41;;;15.86;35.90
21359;BME280;13506;50.852;20.632;2023-05-12T10:12:48;98748.00;;;16.03;35.82
21359;BME280;13506;50.852;20.632;2023-05-12T10:15:17;98740.25;;;16.01;36.72
21359;BME280;13506;50.852;20.632;2023-05-12T10:17:47;98748.16;;;16.01;38.08
21359;BME280;13506;50.852;20.632;2023-05-12T10:20:17;98734.75;;;16.24;36.78
21359;BME280;13506;50.852;20.632;2023-05-12T10:22:46;98741.84;;;16.53;37.68
21359;BME280;13506;50.852;20.632;2023-05-12T10:25:16;98733.38;;;16.30;38.48
21359;BME280;13506;50.852;20.632;2023-05-12T10:27:47;98737.25;;;15.66;39.35
21359;BME280;13506;50.852;20.632;2023-05-12T10:30:16;98733.97;;;15.83;38.50
21359;BME280;13506;50.852;20.632;2023-05-12T10:32:44;98748.88;;;16.13;37.40
21359;BME280;13506;50.852;20.632;2023-05-12T10:35:13;98744.47;;;16.43;38.24
21359;BME280;13506;50.852;20.632;2023-05-12T10:37:42;98740.53;;;16.08;36.82
21359;BME280;13506;50.852;20.632;2023-05-12T10:40:10;98762.50;;;15.37;38.25
21359;BME280;13506;50.852;20.632;2023-05-12T10:42:41;98751.03;;;15.79;38.20
21359;BME280;13506;50.852;20.632;2023-05-12T10:45:20;98731.34;;;16.02;37.54
21359;BME280;13506;50.852;20.632;2023-05-12T10:47:48;98740.03;;;16.24;37.23
21359;BME280;13506;50.852;20.632;2023-05-12T10:50:25;98735.56;;;16.25;37.07
21359;BME280;13506;50.852;20.632;2023-05-12T10:52:54;98739.75;;;16.66;37.28
21359;BME280;13506;50.852;20.632;2023-05-12T10:55:30;98731.34;;;17.00;37.04
21359;BME280;13506;50.852;20.632;2023-05-12T10:58:07;98746.81;;;16.95;36.96
21359;BME280;13506;50.852;20.632;2023-05-12T11:00:45;98742.25;;;16.29;36.41
21359;BME280;13506;50.852;20.632;2023-05-12T11:03:15;98736.59;;;15.83;36.49
21359;BME280;13506;50.852;20.632;2023-05-12T11:05:44;98747.38;;;15.70;37.09
21359;BME280;13506;50.852;20.632;2023-05-12T11:08:12;98730.75;;;15.79;36.92
21359;BME280;13506;50.852;20.632;2023-05-12T11:10:42;98753.78;;;15.68;37.49
21359;BME280;13506;50.852;20.632;2023-05-12T11:13:11;98742.56;;;15.85;37.01
21359;BME280;13506;50.852;20.632;2023-05-12T11:15:44;98745.06;;;15.87;36.81
21359;BME280;13506;50.852;20.632;2023-05-12T11:18:18;98750.16;;;15.38;36.11
21359;BME280;13506;50.852;20.632;2023-05-12T11:20:46;98756.00;;;15.20;37.68
21359;BME280;13506;50.852;20.632;2023-05-12T11:23:23;98750.75;;;15.20;38.06
21359;BME280;13506;50.852;20.632;2023-05-12T11:25:53;98744.22;;;15.36;38.35
21359;BME280;13506;50.852;20.632;2023-05-12T11:28:21;98736.56;;;15.73;38.41
21359;BME280;13506;50.852;20.632;2023-05-12T11:30:52;98729.47;;;15.74;37.14
21359;BME280;13506;50.852;20.632;2023-05-12T11:33:20;98747.81;;;15.75;37.84
21359;BME280;13506;50.852;20.632;2023-05-12T11:35:49;98733.94;;;16.33;37.72
21359;BME280;13506;50.852;20.632;2023-05-12T11:38:17;98744.19;;;16.56;36.05
21359;BME280;13506;50.852;20.632;2023-05-12T11:40:50;98735.47;;;16.36;35.19
21359;BME280;13506;50.852;20.632;2023-05-12T11:43:19;98734.44;;;16.86;34.75
21359;BME280;13506;50.852;20.632;2023-05-12T11:45:48;98735.84;;;16.80;35.16
21359;BME280;13506;50.852;20.632;2023-05-12T11:48:17;98737.41;;;16.63;35.61
21359;BME280;13506;50.852;20.632;2023-05-12T11:50:48;98733.84;;;15.94;36.87
21359;BME280;13506;50.852;20.632;2023-05-12T11:53:17;98744.59;;;16.22;37.02
21359;BME280;13506;50.852;20.632;2023-05-12T11:55:49;98751.72;;;15.81;37.71
21359;BME280;13506;50.852;20.632;2023-05-12T11:58:19;98758.00;;;15.49;38.69
21359;BME280;13506;50.852;20.632;2023-05-12T12:00:48;98741.63;;;15.96;39.00
21359;BME280;13506;50.852;20.632;2023-05-12T12:03:18;98739.13;;;16.14;38.20
21359;BME280;13506;50.852;20.632;2023-05-12T12:05:57;98736.69;;;16.41;37.26
21359;BME280;13506;50.852;20.632;2023-05-12T12:08:25;98740.47;;;16.29;36.56
21359;BME280;13506;50.852;20.632;2023-05-12T12:10:53;98731.97;;;16.35;36.88
21359;BME280;13506;50.852;20.632;2023-05-12T12:13:22;98747.25;;;16.41;37.49
21359;BME280;13506;50.852;20.632;2023-05-12T12:15:50;98726.50;;;16.17;37.17
21359;BME280;13506;50.852;20.632;2023-05-12T12:18:20;98743.38;;;16.36;37.41
21359;BME280;13506;50.852;20.632;2023-05-12T12:20:48;98753.09;;;16.35;37.47
21359;BME280;13506;50.852;20.632;2023-05-12T12:23:16;98743.25;;;16.57;37.35
21359;BME280;13506;50.852;20.632;2023-05-12T12:25:44;98746.84;;;16.46;36.53
21359;BME280;13506;50.852;20.632;2023-05-12T12:28:12;98761.19;;;16.63;36.44
21359;BME280;13506;50.852;20.632;2023-05-12T12:30:40;98739.88;;;16.64;36.00
21359;BME280;13506;50.852;20.632;2023-05-12T12:33:08;98748.06;;;16.71;35.74
21359;BME280;13506;50.852;20.632;2023-05-12T12:35:37;98754.03;;;16.25;35.27
21359;BME280;13506;50.852;20.632;2023-05-12T12:38:05;98755.84;;;15.64;34.75
21359;BME280;13506;50.852;20.632;2023-05-12T12:40:34;98755.25;;;15.60;35.46
21359;BME280;13506;50.852;20.632;2023-05-12T12:43:02;98745.69;;;15.59;35.62
21359;BME280;13506;50.852;20.632;2023-05-12T12:45:30;98740.91;;;15.44;35.91
21359;BME280;13506;50.852;20.632;2023-05-12T12:47:58;98751.19;;;15.47;36.42
21359;BME280;13506;50.852;20.632;2023-05-12T12:50:26;98743.44;;;15.95;37.08
21359;BME280;13506;50.852;20.632;2023-05-12T12:52:56;98749.91;;;16.61;37.78
21359;BME280;13506;50.852;20.632;2023-05-12T12:55:24;98748.38;;;16.49;35.68
21359;BME280;13506;50.852;20.632;2023-05-12T12:57:52;98733.63;;;16.56;35.70
21359;BME280;13506;50.852;20.632;2023-05-12T13:00:21;98741.13;;;16.70;35.79
21359;BME280;13506;50.852;20.632;2023-05-12T13:02:50;98743.66;;;16.62;35.77
21359;BME280;13506;50.852;20.632;2023-05-12T13:05:18;98752.81;;;16.29;35.38